Time;durP1;ratioP1;P1;durP2;ratioP2;P2;SDS_P1;SDS_P2;PMS_P1;PMS_P2;Temp;Humidity;BMP_temperature;BMP_pressure;BME280_temperature;BME280_humidity;BME280_pressure;Samples;Min_cycle;Max_cycle;Signal;HPM_P1;HPM_P2
2023/06/27 00:00:35;;;;;;;5.65;1.50;;;;;;;;;;5011161;28;20104;-69
2023/06/27 00:03:00;;;;;;;2.90;1.02;;;;;;;;;;5012769;28;20038;-69
2023/06/27 00:05:26;;;;;;;5.55;1.50;;;;;;;;;;5013452;28;20034;-69
2023/06/27 00:07:51;;;;;;;6.80;1.55;;;;;;;;;;5013165;28;20033;-69
2023/06/27 00:10:17;;;;;;;5.22;1.40;;;;;;;;;;5011906;28;20544;-69
2023/06/27 00:12:44;;;;;;;5.28;1.40;;;;;;;;;;5008817;28;20049;-69
2023/06/27 00:15:09;;;;;;;3.50;1.60;;;;;;;;;;5008227;28;20037;-69
2023/06/27 00:17:35;;;;;;;3.65;1.30;;;;;;;;;;5011836;28;20034;-69
2023/06/27 00:20:01;;;;;;;4.75;1.40;;;;;;;;;;5013266;28;20045;-69
2023/06/27 00:22:27;;;;;;;6.43;1.30;;;;;;;;;;5011514;28;20033;-70
2023/06/27 00:24:53;;;;;;;6.68;1.40;;;;;;;;;;5012282;28;20484;-69
2023/06/27 00:27:19;;;;;;;5.22;1.88;;;;;;;;;;5006202;28;20116;-69
2023/06/27 00:29:44;;;;;;;6.13;2.17;;;;;;;;;;5012784;28;20116;-69
2023/06/27 00:32:10;;;;;;;6.03;1.42;;;;;;;;;;5012362;28;20033;-70
2023/06/27 00:34:35;;;;;;;6.88;1.60;;;;;;;;;;5013123;28;20041;-69
2023/06/27 00:37:00;;;;;;;5.05;1.40;;;;;;;;;;5011737;28;20112;-70
2023/06/27 00:39:26;;;;;;;6.15;1.42;;;;;;;;;;5011654;28;20436;-69
2023/06/27 00:41:52;;;;;;;4.68;1.60;;;;;;;;;;5012432;28;20046;-69
2023/06/27 00:44:18;;;;;;;3.95;1.55;;;;;;;;;;5011094;28;20467;-70
2023/06/27 00:46:46;;;;;;;8.32;1.60;;;;;;;;;;5012787;28;20077;-69
2023/06/27 00:49:12;;;;;;;6.97;1.33;;;;;;;;;;5011392;28;20038;-69
2023/06/27 00:51:40;;;;;;;13.07;1.60;;;;;;;;;;5013906;28;20057;-69
2023/06/27 00:54:06;;;;;;;9.93;1.58;;;;;;;;;;5016544;28;20034;-69
2023/06/27 00:56:31;;;;;;;5.85;1.40;;;;;;;;;;5014630;28;20124;-69
2023/06/27 00:59:00;;;;;;;6.38;1.75;;;;;;;;;;5016041;28;20521;-69
2023/06/27 01:01:29;;;;;;;12.90;1.90;;;;;;;;;;5016315;28;20426;-69
2023/06/27 01:03:54;;;;;;;11.25;1.73;;;;;;;;;;5014661;28;20044;-69
2023/06/27 01:06:38;;;;;;;13.18;2.00;;;;;;;;;;5012394;28;20034;-69
2023/06/27 01:09:14;;;;;;;6.50;1.35;;;;;;;;;;5014227;28;20553;-70
2023/06/27 01:11:53;;;;;;;8.18;1.38;;;;;;;;;;5015219;28;20033;-69
2023/06/27 01:14:19;;;;;;;8.05;1.88;;;;;;;;;;5014288;28;20502;-69
2023/06/27 01:16:46;;;;;;;6.00;1.90;;;;;;;;;;5016098;28;20040;-69
2023/06/27 01:19:12;;;;;;;4.15;1.58;;;;;;;;;;5010615;28;20084;-69
2023/06/27 01:21:39;;;;;;;4.75;1.58;;;;;;;;;;5016380;28;20425;-69
2023/06/27 01:24:06;;;;;;;5.13;1.67;;;;;;;;;;5012078;28;20382;-70
2023/06/27 01:26:32;;;;;;;4.10;1.50;;;;;;;;;;5013606;28;20104;-69
2023/06/27 01:28:57;;;;;;;4.18;1.40;;;;;;;;;;5015450;28;20502;-69
2023/06/27 01:31:45;;;;;;;5.13;1.60;;;;;;;;;;5015942;28;20037;-70
2023/06/27 01:34:21;;;;;;;8.25;1.67;;;;;;;;;;5014247;28;20038;-69
2023/06/27 01:36:50;;;;;;;6.68;1.70;;;;;;;;;;5014787;28;20047;-70
2023/06/27 01:39:26;;;;;;;9.98;2.13;;;;;;;;;;5014318;28;20045;-70
2023/06/27 01:41:55;;;;;;;6.45;1.52;;;;;;;;;;5045585;28;20084;-69
2023/06/27 01:44:21;;;;;;;19.00;2.00;;;;;;;;;;5013911;28;20497;-69
2023/06/27 01:46:48;;;;;;;4.97;1.60;;;;;;;;;;5014612;28;20065;-69
2023/06/27 01:49:13;;;;;;;180.35;113.93;;;;;;;;;;5012112;28;20421;-69
2023/06/27 01:51:40;;;;;;;8.63;1.90;;;;;;;;;;5015445;28;20099;-69
2023/06/27 01:54:05;;;;;;;8.98;1.63;;;;;;;;;;5013759;28;20038;-69
2023/06/27 01:56:31;;;;;;;8.00;2.10;;;;;;;;;;5015548;28;20456;-70
2023/06/27 01:58:56;;;;;;;9.43;1.83;;;;;;;;;;5014264;28;20401;-69
2023/06/27 02:01:21;;;;;;;6.80;2.00;;;;;;;;;;5013637;28;20041;-69
2023/06/27 02:03:47;;;;;;;6.10;2.05;;;;;;;;;;5015029;28;20033;-69
2023/06/27 02:06:12;;;;;;;6.43;1.75;;;;;;;;;;5015185;28;20037;-69
2023/06/27 02:08:37;;;;;;;7.75;2.05;;;;;;;;;;5012703;28;20045;-69
2023/06/27 02:11:03;;;;;;;9.45;2.13;;;;;;;;;;5015045;28;20434;-69
2023/06/27 02:13:28;;;;;;;8.10;2.10;;;;;;;;;;5014695;28;20046;-69
2023/06/27 02:15:54;;;;;;;5.43;1.75;;;;;;;;;;5014946;28;20141;-69
2023/06/27 02:18:19;;;;;;;5.03;1.50;;;;;;;;;;5014433;28;20355;-69
2023/06/27 02:20:44;;;;;;;6.57;1.75;;;;;;;;;;5014828;28;20482;-70
2023/06/27 02:23:10;;;;;;;13.48;2.15;;;;;;;;;;5006792;28;20492;-69
2023/06/27 02:25:35;;;;;;;10.25;2.00;;;;;;;;;;5014575;28;20044;-69
2023/06/27 02:28:00;;;;;;;5.78;2.53;;;;;;;;;;5014429;28;20114;-69
2023/06/27 02:30:26;;;;;;;6.65;2.30;;;;;;;;;;5014327;28;20091;-69
2023/06/27 02:32:51;;;;;;;15.52;2.15;;;;;;;;;;5014368;28;20091;-69
2023/06/27 02:35:16;;;;;;;6.03;2.05;;;;;;;;;;5014669;28;20046;-70
2023/06/27 02:37:42;;;;;;;7.32;2.05;;;;;;;;;;5014133;28;20172;-69
2023/06/27 02:40:08;;;;;;;10.82;2.47;;;;;;;;;;5014377;28;20037;-69
2023/06/27 02:42:34;;;;;;;7.20;1.90;;;;;;;;;;5014371;28;20056;-69
2023/06/27 02:44:59;;;;;;;7.97;2.05;;;;;;;;;;5014617;28;20033;-70
2023/06/27 02:47:24;;;;;;;7.65;1.92;;;;;;;;;;5012112;28;20037;-69
2023/06/27 02:49:50;;;;;;;8.55;1.80;;;;;;;;;;5014273;28;20116;-69
2023/06/27 02:52:15;;;;;;;10.38;2.35;;;;;;;;;;5014074;28;20030;-69
2023/06/27 02:54:41;;;;;;;12.57;2.83;;;;;;;;;;5014628;28;20037;-69
2023/06/27 02:57:06;;;;;;;11.60;2.30;;;;;;;;;;5013954;28;20041;-69
2023/06/27 02:59:31;;;;;;;7.93;2.03;;;;;;;;;;5014073;28;20125;-69
2023/06/27 03:01:57;;;;;;;10.65;1.80;;;;;;;;;;5014150;28;20057;-69
2023/06/27 03:04:22;;;;;;;11.48;2.28;;;;;;;;;;5013612;28;20116;-69
2023/06/27 03:06:48;;;;;;;8.30;2.95;;;;;;;;;;5013188;28;20063;-69
2023/06/27 03:09:14;;;;;;;11.98;2.38;;;;;;;;;;5009741;28;20458;-69
2023/06/27 03:11:40;;;;;;;10.90;2.67;;;;;;;;;;5009836;28;20091;-70
2023/06/27 03:14:05;;;;;;;8.75;2.20;;;;;;;;;;5013405;28;20041;-69
2023/06/27 03:16:30;;;;;;;4.32;1.90;;;;;;;;;;5014011;28;20100;-69
2023/06/27 03:18:56;;;;;;;13.18;2.78;;;;;;;;;;5013500;28;20034;-70
2023/06/27 03:21:21;;;;;;;7.63;2.25;;;;;;;;;;5013791;28;20473;-69
2023/06/27 03:23:46;;;;;;;12.65;2.30;;;;;;;;;;5013283;28;20474;-69
2023/06/27 03:26:12;;;;;;;9.05;1.90;;;;;;;;;;5013633;28;20029;-69
2023/06/27 03:28:37;;;;;;;13.10;2.90;;;;;;;;;;5013557;28;20469;-69
2023/06/27 03:31:02;;;;;;;5.30;2.70;;;;;;;;;;5012379;28;20478;-69
2023/06/27 03:33:28;;;;;;;9.43;2.10;;;;;;;;;;5013065;28;20044;-69
2023/06/27 03:35:53;;;;;;;10.35;2.10;;;;;;;;;;5013706;28;20045;-69
2023/06/27 03:38:18;;;;;;;13.85;2.65;;;;;;;;;;5012345;28;20462;-69
2023/06/27 03:40:44;;;;;;;9.30;2.30;;;;;;;;;;5004445;28;20073;-69
2023/06/27 03:43:11;;;;;;;9.70;2.40;;;;;;;;;;5013454;28;20029;-69
2023/06/27 03:45:38;;;;;;;1540.68;775.03;;;;;;;;;;5012479;28;20030;-69
2023/06/27 03:48:04;;;;;;;10.63;3.00;;;;;;;;;;5009092;28;20106;-69
2023/06/27 03:50:30;;;;;;;11.25;2.83;;;;;;;;;;5006069;28;20049;-69
2023/06/27 03:52:55;;;;;;;12.43;2.65;;;;;;;;;;5008307;28;20061;-70
2023/06/27 03:55:20;;;;;;;75.78;5.68;;;;;;;;;;5012259;28;20046;-69
2023/06/27 03:57:46;;;;;;;10.73;2.67;;;;;;;;;;5012900;28;20068;-69
2023/06/27 04:00:12;;;;;;;53.85;5.80;;;;;;;;;;5013073;28;20038;-70
2023/06/27 04:02:37;;;;;;;14.63;3.03;;;;;;;;;;5012482;28;20104;-69
2023/06/27 04:05:03;;;;;;;8.52;2.33;;;;;;;;;;5013421;28;20441;-69
2023/06/27 04:07:28;;;;;;;10.05;2.42;;;;;;;;;;5012911;28;20038;-69
2023/06/27 04:09:53;;;;;;;7.55;2.65;;;;;;;;;;5012995;28;20042;-69
2023/06/27 04:12:19;;;;;;;6.10;2.00;;;;;;;;;;5011985;28;20080;-69
2023/06/27 04:14:45;;;;;;;11.95;2.50;;;;;;;;;;5013503;28;20045;-69
2023/06/27 04:17:10;;;;;;;10.38;2.55;;;;;;;;;;5012525;28;20038;-69
2023/06/27 04:19:35;;;;;;;9.27;2.58;;;;;;;;;;5012156;28;20041;-69
2023/06/27 04:22:00;;;;;;;8.70;2.28;;;;;;;;;;5013188;28;20096;-69
2023/06/27 04:24:26;;;;;;;9.13;2.17;;;;;;;;;;5012767;28;20038;-69
2023/06/27 04:26:51;;;;;;;9.57;2.75;;;;;;;;;;5013680;28;20028;-70
2023/06/27 04:29:17;;;;;;;9.50;2.75;;;;;;;;;;5015882;28;20040;-69
2023/06/27 04:31:42;;;;;;;142.45;131.05;;;;;;;;;;5016161;28;20045;-69
2023/06/27 04:34:08;;;;;;;12.38;2.80;;;;;;;;;;5009347;28;20030;-69
2023/06/27 04:36:36;;;;;;;11.02;2.42;;;;;;;;;;5017144;28;20037;-69
2023/06/27 04:39:05;;;;;;;8.90;2.30;;;;;;;;;;5015035;28;20100;-70
2023/06/27 04:41:31;;;;;;;8.27;2.20;;;;;;;;;;5016879;28;20129;-70
2023/06/27 04:43:59;;;;;;;11.13;2.40;;;;;;;;;;5016606;28;20102;-70
2023/06/27 04:46:28;;;;;;;134.68;9.50;;;;;;;;;;5016784;28;20091;-69
2023/06/27 04:48:56;;;;;;;7.50;2.30;;;;;;;;;;5016206;28;20072;-70
2023/06/27 04:51:22;;;;;;;6.75;2.30;;;;;;;;;;5016767;28;20072;-69
2023/06/27 04:53:47;;;;;;;8.27;2.20;;;;;;;;;;5013962;28;20042;-69
2023/06/27 04:56:12;;;;;;;6.43;2.03;;;;;;;;;;5016682;28;20036;-70
2023/06/27 04:58:38;;;;;;;9.75;3.30;;;;;;;;;;5015759;28;20057;-70
2023/06/27 05:01:03;;;;;;;13.77;2.88;;;;;;;;;;5016590;28;20474;-70
2023/06/27 05:03:28;;;;;;;10.90;2.45;;;;;;;;;;5016019;28;20068;-69
2023/06/27 05:05:54;;;;;;;10.80;2.30;;;;;;;;;;5016582;28;20442;-70
2023/06/27 05:08:19;;;;;;;8.23;1.90;;;;;;;;;;5016201;28;20095;-69
2023/06/27 05:10:44;;;;;;;7.57;2.20;;;;;;;;;;5016096;28;20038;-69
2023/06/27 05:13:10;;;;;;;5.80;1.63;;;;;;;;;;5015908;28;20034;-69
2023/06/27 05:15:35;;;;;;;9.75;2.08;;;;;;;;;;5016901;28;20041;-70
2023/06/27 05:18:06;;;;;;;10.55;2.60;;;;;;;;;;5015879;28;20030;-70
2023/06/27 05:20:31;;;;;;;7.43;1.88;;;;;;;;;;5015916;28;20042;-69
2023/06/27 05:22:57;;;;;;;8.32;2.72;;;;;;;;;;5015476;28;20088;-70
2023/06/27 05:25:22;;;;;;;277.25;23.58;;;;;;;;;;5015816;28;20057;-69
2023/06/27 05:27:47;;;;;;;10.23;3.20;;;;;;;;;;5014635;28;20073;-70
2023/06/27 05:30:13;;;;;;;7.03;2.25;;;;;;;;;;5015412;28;20068;-70
2023/06/27 05:32:38;;;;;;;5.60;1.95;;;;;;;;;;5015935;28;20034;-69
2023/06/27 05:35:04;;;;;;;7.15;2.15;;;;;;;;;;5015959;28;20160;-69
2023/06/27 05:37:29;;;;;;;10.68;2.10;;;;;;;;;;5014922;28;20034;-69
2023/06/27 05:39:55;;;;;;;5.25;1.90;;;;;;;;;;5014268;28;20056;-70
2023/06/27 05:42:20;;;;;;;8.20;2.40;;;;;;;;;;5015660;28;20128;-70
2023/06/27 05:44:45;;;;;;;10.55;2.53;;;;;;;;;;5015789;28;20444;-69
2023/06/27 05:47:11;;;;;;;8.00;2.20;;;;;;;;;;5015390;28;20355;-70
2023/06/27 05:49:36;;;;;;;8.60;2.40;;;;;;;;;;5007947;28;20454;-69
2023/06/27 05:52:02;;;;;;;7.47;2.28;;;;;;;;;;5015241;28;20129;-70
2023/06/27 05:54:27;;;;;;;6.38;1.90;;;;;;;;;;5015506;28;20402;-69
2023/06/27 05:56:52;;;;;;;11.30;2.25;;;;;;;;;;5015847;28;20030;-69
2023/06/27 05:59:18;;;;;;;6.47;2.17;;;;;;;;;;5015000;28;20108;-70
2023/06/27 06:01:43;;;;;;;10.77;2.10;;;;;;;;;;5008025;28;20042;-69
2023/06/27 06:04:09;;;;;;;3.67;1.65;;;;;;;;;;5009697;28;20118;-69
2023/06/27 06:06:37;;;;;;;8.07;1.90;;;;;;;;;;5015262;28;20045;-69
2023/06/27 06:09:03;;;;;;;9.43;1.90;;;;;;;;;;5013562;28;20447;-70
2023/06/27 06:11:29;;;;;;;8.65;2.00;;;;;;;;;;5013731;28;20042;-70
2023/06/27 06:13:54;;;;;;;9.63;2.08;;;;;;;;;;5014867;28;20120;-69
2023/06/27 06:16:19;;;;;;;6.97;2.20;;;;;;;;;;5011848;28;20121;-70
2023/06/27 06:18:45;;;;;;;8.05;2.33;;;;;;;;;;5014870;28;20042;-70
2023/06/27 06:21:12;;;;;;;6.93;2.05;;;;;;;;;;5014328;28;20125;-70
2023/06/27 06:23:38;;;;;;;5.35;1.83;;;;;;;;;;5009670;28;20088;-70
2023/06/27 06:26:03;;;;;;;9.25;2.22;;;;;;;;;;5013778;28;20034;-70
2023/06/27 06:28:28;;;;;;;4.88;1.83;;;;;;;;;;5013951;28;20053;-70
2023/06/27 06:30:54;;;;;;;7.10;1.83;;;;;;;;;;5014166;28;20037;-70
2023/06/27 06:33:19;;;;;;;7.78;1.88;;;;;;;;;;5008649;28;20050;-70
2023/06/27 06:35:44;;;;;;;5.20;2.08;;;;;;;;;;5014246;28;20053;-70
2023/06/27 06:38:10;;;;;;;6.63;2.10;;;;;;;;;;5018641;28;20038;-70
2023/06/27 06:40:35;;;;;;;7.25;2.08;;;;;;;;;;5014731;28;20034;-70
2023/06/27 06:43:00;;;;;;;7.80;2.17;;;;;;;;;;5011033;28;20037;-70
2023/06/27 06:45:25;;;;;;;5.82;1.75;;;;;;;;;;5014482;28;20034;-70
2023/06/27 06:47:52;;;;;;;6.53;1.85;;;;;;;;;;5013446;28;20034;-70
2023/06/27 06:50:17;;;;;;;7.63;2.38;;;;;;;;;;5014033;28;20033;-70
2023/06/27 06:52:43;;;;;;;5.85;1.70;;;;;;;;;;5014550;28;20033;-71
2023/06/27 06:55:09;;;;;;;8.43;1.92;;;;;;;;;;5014356;28;20037;-70
2023/06/27 06:57:34;;;;;;;11.82;2.15;;;;;;;;;;5014240;28;20046;-70
2023/06/27 06:59:59;;;;;;;7.03;1.70;;;;;;;;;;5014010;28;20026;-70
2023/06/27 07:02:24;;;;;;;14.32;2.10;;;;;;;;;;5012157;28;20124;-70
2023/06/27 07:04:50;;;;;;;5.60;1.88;;;;;;;;;;5012399;28;20046;-70
2023/06/27 07:07:15;;;;;;;8.18;1.98;;;;;;;;;;5009428;28;20025;-70
2023/06/27 07:09:40;;;;;;;8.98;2.20;;;;;;;;;;5013625;28;20037;-70
2023/06/27 07:12:06;;;;;;;9.88;2.15;;;;;;;;;;5012526;28;20042;-70
2023/06/27 07:14:32;;;;;;;11.63;1.88;;;;;;;;;;5008586;28;20394;-70
2023/06/27 07:16:57;;;;;;;7.05;1.67;;;;;;;;;;5014147;28;20566;-70
2023/06/27 07:19:22;;;;;;;8.27;2.45;;;;;;;;;;5011354;28;20167;-70
2023/06/27 07:21:48;;;;;;;10.10;2.13;;;;;;;;;;5007786;28;20243;-70
2023/06/27 07:24:13;;;;;;;9.48;1.90;;;;;;;;;;5007474;28;20090;-70
2023/06/27 07:26:38;;;;;;;11.73;2.50;;;;;;;;;;5013208;28;20129;-70
2023/06/27 07:29:04;;;;;;;13.27;1.90;;;;;;;;;;5012211;28;20026;-70
2023/06/27 07:31:29;;;;;;;15.15;2.05;;;;;;;;;;5013365;28;20383;-70
2023/06/27 07:33:55;;;;;;;14.15;2.30;;;;;;;;;;5011807;28;20116;-70
2023/06/27 07:36:20;;;;;;;11.52;2.15;;;;;;;;;;5013258;28;20109;-70
2023/06/27 07:38:46;;;;;;;7.07;2.20;;;;;;;;;;5013505;28;20124;-70
2023/06/27 07:41:11;;;;;;;8.18;2.00;;;;;;;;;;5011419;28;20088;-70
2023/06/27 07:43:36;;;;;;;9.38;1.90;;;;;;;;;;5012426;28;20041;-70
2023/06/27 07:46:02;;;;;;;5.18;1.63;;;;;;;;;;5012941;28;20091;-70
2023/06/27 07:48:27;;;;;;;9.95;2.42;;;;;;;;;;5012839;28;20124;-70
2023/06/27 07:50:52;;;;;;;6.20;2.20;;;;;;;;;;5013422;28;20034;-70
2023/06/27 07:53:18;;;;;;;7.88;1.90;;;;;;;;;;5011636;28;20045;-70
2023/06/27 07:55:43;;;;;;;10.00;2.03;;;;;;;;;;5006014;28;20042;-70
2023/06/27 07:58:09;;;;;;;9.60;1.75;;;;;;;;;;5010864;28;20050;-70
2023/06/27 08:00:34;;;;;;;11.85;2.03;;;;;;;;;;5010239;28;20068;-70
2023/06/27 08:03:00;;;;;;;14.57;2.22;;;;;;;;;;5011526;28;20072;-70
2023/06/27 08:05:28;;;;;;;10.88;1.80;;;;;;;;;;5012002;28;20062;-70
2023/06/27 08:07:54;;;;;;;9.05;1.75;;;;;;;;;;5001287;28;20148;-70
2023/06/27 08:10:19;;;;;;;6.43;1.70;;;;;;;;;;5009376;28;20516;-70
2023/06/27 08:12:44;;;;;;;4.10;1.95;;;;;;;;;;5008161;28;20041;-70
2023/06/27 08:15:10;;;;;;;11.48;2.00;;;;;;;;;;5008176;28;20034;-70
2023/06/27 08:17:35;;;;;;;8.35;1.58;;;;;;;;;;5009441;28;20571;-70
2023/06/27 08:20:01;;;;;;;9.45;2.50;;;;;;;;;;5009305;28;20040;-70
2023/06/27 08:22:26;;;;;;;12.07;2.03;;;;;;;;;;5010334;28;20367;-70
2023/06/27 08:24:51;;;;;;;7.90;2.03;;;;;;;;;;5000374;28;20080;-70
2023/06/27 08:27:17;;;;;;;10.70;1.85;;;;;;;;;;5007177;28;20041;-70
2023/06/27 08:29:42;;;;;;;7.40;1.83;;;;;;;;;;5008769;28;20065;-70
2023/06/27 08:32:07;;;;;;;8.52;2.03;;;;;;;;;;5007784;28;20046;-70
2023/06/27 08:34:38;;;;;;;13.80;2.03;;;;;;;;;;5009309;28;20087;-70
2023/06/27 08:37:03;;;;;;;9.18;1.92;;;;;;;;;;5000550;28;20038;-70
2023/06/27 08:39:29;;;;;;;13.05;2.45;;;;;;;;;;5008809;28;20061;-70
2023/06/27 08:41:55;;;;;;;8.20;2.22;;;;;;;;;;5009077;28;20058;-70
2023/06/27 08:44:20;;;;;;;7.22;1.77;;;;;;;;;;5007322;28;20045;-70
2023/06/27 08:46:47;;;;;;;4.85;1.63;;;;;;;;;;5009247;28;20046;-70
2023/06/27 08:49:20;;;;;;;6.50;1.60;;;;;;;;;;5009411;28;20491;-70
2023/06/27 08:51:51;;;;;;;4.63;1.77;;;;;;;;;;5006210;28;20137;-70
2023/06/27 08:54:25;;;;;;;7.03;1.67;;;;;;;;;;5004738;28;20089;-70
2023/06/27 08:56:50;;;;;;;11.18;2.10;;;;;;;;;;4994900;28;20390;-70
2023/06/27 08:59:19;;;;;;;7.18;1.98;;;;;;;;;;5007812;28;20046;-70
2023/06/27 09:01:45;;;;;;;6.13;1.90;;;;;;;;;;5004056;28;20030;-70
2023/06/27 09:04:10;;;;;;;8.70;2.42;;;;;;;;;;5007566;28;20041;-70
2023/06/27 09:06:39;;;;;;;10.20;2.53;;;;;;;;;;5007938;28;20056;-70
2023/06/27 09:09:05;;;;;;;6.60;1.85;;;;;;;;;;5007969;28;20033;-70
2023/06/27 09:11:30;;;;;;;6.28;1.80;;;;;;;;;;5009939;28;20041;-70
2023/06/27 09:13:56;;;;;;;8.63;1.65;;;;;;;;;;5012523;28;20038;-70
2023/06/27 09:16:21;;;;;;;4.57;1.52;;;;;;;;;;5011199;28;20026;-70
2023/06/27 09:18:47;;;;;;;8.68;1.80;;;;;;;;;;5011370;28;20033;-70
2023/06/27 09:21:13;;;;;;;7.70;2.05;;;;;;;;;;5009664;28;20038;-71
2023/06/27 09:23:39;;;;;;;11.85;1.95;;;;;;;;;;5013049;28;20539;-70
2023/06/27 09:26:05;;;;;;;5.10;1.80;;;;;;;;;;4997668;28;20251;-70
2023/06/27 09:28:30;;;;;;;10.82;1.83;;;;;;;;;;5012543;28;20052;-70
2023/06/27 09:30:57;;;;;;;6.05;1.70;;;;;;;;;;5010715;28;20034;-70
2023/06/27 09:33:23;;;;;;;7.40;1.98;;;;;;;;;;5011714;28;20341;-70
2023/06/27 09:35:48;;;;;;;7.20;1.83;;;;;;;;;;5010959;28;20127;-71
2023/06/27 09:38:14;;;;;;;9.60;1.95;;;;;;;;;;5012260;28;20400;-70
2023/06/27 09:40:40;;;;;;;8.43;1.77;;;;;;;;;;5011213;28;20041;-70
2023/06/27 09:43:07;;;;;;;5.80;1.65;;;;;;;;;;5012623;28;20040;-70
2023/06/27 09:45:32;;;;;;;1244.75;314.50;;;;;;;;;;5012253;28;20044;-70
2023/06/27 09:47:58;;;;;;;9.63;2.08;;;;;;;;;;5012019;28;20385;-70
2023/06/27 09:50:28;;;;;;;9.38;1.83;;;;;;;;;;5011677;28;20042;-70
2023/06/27 09:52:56;;;;;;;7.57;1.88;;;;;;;;;;5010296;28;20451;-70
2023/06/27 09:55:22;;;;;;;10.60;2.28;;;;;;;;;;5001382;28;20033;-70
2023/06/27 09:57:47;;;;;;;10.82;1.90;;;;;;;;;;5018377;28;20119;-70
2023/06/27 10:00:14;;;;;;;10.05;1.80;;;;;;;;;;5012177;28;20030;-70
2023/06/27 10:02:40;;;;;;;8.15;2.08;;;;;;;;;;5010414;28;20034;-70
2023/06/27 10:05:06;;;;;;;5.38;1.90;;;;;;;;;;4995518;28;20037;-70
2023/06/27 10:07:31;;;;;;;7.30;1.92;;;;;;;;;;4997916;28;20041;-70
2023/06/27 10:09:57;;;;;;;10.10;1.85;;;;;;;;;;5010109;28;20042;-70
2023/06/27 10:12:23;;;;;;;6.65;1.73;;;;;;;;;;5009179;28;20395;-70
2023/06/27 10:14:49;;;;;;;8.27;2.03;;;;;;;;;;5010938;28;20112;-70
2023/06/27 10:17:18;;;;;;;7.68;1.75;;;;;;;;;;5009647;28;20125;-70
2023/06/27 10:19:45;;;;;;;5.00;1.77;;;;;;;;;;5009605;28;20042;-70
2023/06/27 10:22:13;;;;;;;6.65;1.88;;;;;;;;;;5010361;28;20037;-70
2023/06/27 10:24:40;;;;;;;7.95;2.10;;;;;;;;;;5009519;28;20050;-70
2023/06/27 10:27:07;;;;;;;9.55;2.50;;;;;;;;;;5009996;28;20410;-70
2023/06/27 10:29:33;;;;;;;9.48;2.15;;;;;;;;;;5010226;28;20096;-70
2023/06/27 10:31:58;;;;;;;16.20;2.25;;;;;;;;;;5010905;28;20038;-70
2023/06/27 10:34:24;;;;;;;7.05;2.08;;;;;;;;;;5007049;28;20037;-70
2023/06/27 10:36:56;;;;;;;9.60;1.92;;;;;;;;;;5006961;28;20034;-70
2023/06/27 10:39:32;;;;;;;6.30;2.00;;;;;;;;;;5008532;28;20049;-70
2023/06/27 10:42:01;;;;;;;9.50;2.10;;;;;;;;;;4999652;28;20038;-70
2023/06/27 10:44:27;;;;;;;204.05;14.13;;;;;;;;;;5009590;28;20050;-70
2023/06/27 10:47:17;;;;;;;45.35;3.80;;;;;;;;;;5009372;28;20026;-70
2023/06/27 10:49:46;;;;;;;6.60;1.70;;;;;;;;;;5010132;28;20037;-71
2023/06/27 10:52:19;;;;;;;9.35;2.35;;;;;;;;;;5010845;28;20053;-70
2023/06/27 10:54:44;;;;;;;;;;;;;;;;;;5011242;28;20045;-70
2023/06/27 10:57:15;;;;;;;43.00;6.68;;;;;;;;;;5010733;28;19913;-70
2023/06/27 10:59:45;;;;;;;76.93;4.60;;;;;;;;;;5010102;28;20501;-70
2023/06/27 11:02:10;;;;;;;119.95;12.85;;;;;;;;;;5009183;28;20435;-70
2023/06/27 11:04:42;;;;;;;84.65;16.63;;;;;;;;;;5010185;28;20074;-70
2023/06/27 11:07:10;;;;;;;70.55;5.68;;;;;;;;;;4999547;28;20542;-71
2023/06/27 11:09:36;;;;;;;70.50;6.15;;;;;;;;;;5006900;28;20084;-70
2023/06/27 11:12:11;;;;;;;67.30;27.33;;;;;;;;;;5008794;28;20034;-71
2023/06/27 11:14:41;;;;;;;72.38;5.50;;;;;;;;;;5008598;28;20484;-70
2023/06/27 11:17:07;;;;;;;1526.60;754.55;;;;;;;;;;5006830;28;20126;-71
2023/06/27 11:19:33;;;;;;;583.10;292.77;;;;;;;;;;5005181;28;20116;-70
2023/06/27 11:22:00;;;;;;;1999.90;999.90;;;;;;;;;;5009665;28;20220;-70
2023/06/27 11:24:26;;;;;;;6.90;1.98;;;;;;;;;;5009488;28;20117;-70
2023/06/27 11:26:52;;;;;;;8.50;2.35;;;;;;;;;;5008732;28;20043;-70
2023/06/27 11:29:17;;;;;;;4.88;2.58;;;;;;;;;;5009787;28;20484;-71
2023/06/27 11:31:43;;;;;;;7.95;2.38;;;;;;;;;;5010178;28;20558;-71
2023/06/27 11:34:08;;;;;;;8.95;2.33;;;;;;;;;;5008786;28;20026;-71
2023/06/27 11:36:38;;;;;;;316.65;40.15;;;;;;;;;;5009742;28;20490;-71
2023/06/27 11:39:05;;;;;;;8.13;2.00;;;;;;;;;;5007895;28;20213;-70
2023/06/27 11:41:30;;;;;;;135.77;14.23;;;;;;;;;;5009454;28;20073;-70
2023/06/27 11:43:56;;;;;;;635.58;260.73;;;;;;;;;;5007575;28;20065;-70
2023/06/27 11:46:21;;;;;;;42.47;4.13;;;;;;;;;;5010067;28;20038;-70
2023/06/27 11:48:47;;;;;;;5.70;1.85;;;;;;;;;;5008177;28;20039;-70
2023/06/27 11:51:13;;;;;;;8.75;1.88;;;;;;;;;;5008864;28;20038;-70
2023/06/27 11:53:39;;;;;;;6.22;2.03;;;;;;;;;;5003814;28;20037;-70
2023/06/27 11:56:05;;;;;;;3.88;1.45;;;;;;;;;;5007896;28;20477;-70
2023/06/27 11:58:32;;;;;;;7.40;2.10;;;;;;;;;;5006915;28;20053;-70
2023/06/27 12:00:58;;;;;;;5.38;2.35;;;;;;;;;;5007696;28;20060;-71
2023/06/27 12:03:33;;;;;;;7.63;1.80;;;;;;;;;;5007594;28;20505;-70
2023/06/27 12:05:58;;;;;;;4.70;1.90;;;;;;;;;;5003802;28;20037;-71
2023/06/27 12:08:30;;;;;;;5.20;1.85;;;;;;;;;;5006773;28;20052;-71
2023/06/27 12:10:58;;;;;;;10.68;2.20;;;;;;;;;;5000169;28;20126;-70
2023/06/27 12:13:31;;;;;;;7.40;2.13;;;;;;;;;;5000661;28;20038;-70
2023/06/27 12:15:57;;;;;;;;;;;;;;;;;;5009273;28;20084;-71
2023/06/27 12:18:23;;;;;;;8.48;2.17;;;;;;;;;;5006991;28;20258;-71
2023/06/27 12:20:53;;;;;;;5.53;1.92;;;;;;;;;;5002222;28;20045;-71
2023/06/27 12:23:18;;;;;;;7.35;1.90;;;;;;;;;;5008266;28;20409;-71
2023/06/27 12:25:44;;;;;;;7.07;1.80;;;;;;;;;;5005119;28;20049;-71
2023/06/27 12:28:10;;;;;;;8.88;1.88;;;;;;;;;;4999499;28;20506;-71
2023/06/27 12:30:35;;;;;;;6.40;1.83;;;;;;;;;;5003942;28;20049;-71
2023/06/27 12:33:01;;;;;;;7.18;2.00;;;;;;;;;;4997552;28;20130;-71
2023/06/27 12:35:27;;;;;;;8.45;1.80;;;;;;;;;;5003397;28;20038;-71
2023/06/27 12:37:52;;;;;;;6.85;1.90;;;;;;;;;;5003479;28;20046;-70
2023/06/27 12:40:20;;;;;;;8.40;2.17;;;;;;;;;;5007037;28;20045;-71
2023/06/27 12:42:45;;;;;;;4.10;1.83;;;;;;;;;;5003595;28;20044;-70
2023/06/27 12:45:11;;;;;;;6.53;1.60;;;;;;;;;;5005906;28;20038;-71
2023/06/27 12:47:41;;;;;;;7.97;2.15;;;;;;;;;;5011216;28;20041;-71
2023/06/27 12:50:10;;;;;;;5.55;1.95;;;;;;;;;;5007172;28;20065;-70
2023/06/27 12:52:35;;;;;;;6.88;1.98;;;;;;;;;;5012288;28;20117;-71
2023/06/27 12:55:01;;;;;;;5.45;1.67;;;;;;;;;;5002946;28;20172;-70
2023/06/27 12:57:26;;;;;;;4.90;1.67;;;;;;;;;;5011105;28;20026;-71
2023/06/27 12:59:51;;;;;;;6.70;2.03;;;;;;;;;;5010734;28;20056;-71
2023/06/27 13:02:18;;;;;;;7.10;2.42;;;;;;;;;;5010785;28;20045;-70
2023/06/27 13:04:44;;;;;;;8.00;2.30;;;;;;;;;;5011535;28;20036;-71
2023/06/27 13:07:09;;;;;;;8.85;3.05;;;;;;;;;;5009186;28;20046;-70
2023/06/27 13:09:35;;;;;;;6.78;2.13;;;;;;;;;;5012780;28;20042;-70
2023/06/27 13:12:00;;;;;;;5.88;1.90;;;;;;;;;;5011856;28;20041;-71
2023/06/27 13:14:25;;;;;;;8.63;2.10;;;;;;;;;;5011123;28;20030;-71
2023/06/27 13:16:51;;;;;;;16.27;2.55;;;;;;;;;;5011601;28;20048;-71
2023/06/27 13:19:16;;;;;;;4.88;1.98;;;;;;;;;;5010850;28;20034;-70
2023/06/27 13:21:42;;;;;;;5.35;1.83;;;;;;;;;;5010878;28;20381;-71
2023/06/27 13:24:08;;;;;;;1250.07;580.00;;;;;;;;;;5011463;28;20042;-70
2023/06/27 13:26:33;;;;;;;1999.90;999.90;;;;;;;;;;5009607;28;20371;-71
2023/06/27 13:28:59;;;;;;;1999.90;999.90;;;;;;;;;;5011628;28;20073;-71
2023/06/27 13:31:24;;;;;;;1999.90;999.90;;;;;;;;;;5008886;28;20046;-71
2023/06/27 13:33:49;;;;;;;1999.90;999.90;;;;;;;;;;5011545;28;20030;-71
2023/06/27 13:36:15;;;;;;;1999.90;999.90;;;;;;;;;;5012048;28;20041;-71
2023/06/27 13:38:41;;;;;;;1999.90;999.90;;;;;;;;;;5011168;28;20037;-71
2023/06/27 13:41:06;;;;;;;1999.90;999.90;;;;;;;;;;5009269;28;20095;-71
2023/06/27 13:43:34;;;;;;;1999.90;999.90;;;;;;;;;;5009626;28;20042;-70
2023/06/27 13:45:59;;;;;;;1999.90;999.90;;;;;;;;;;5010275;28;20034;-70
2023/06/27 13:48:25;;;;;;;1999.90;999.90;;;;;;;;;;5011715;28;20363;-70
2023/06/27 13:50:53;;;;;;;1999.90;999.90;;;;;;;;;;5011064;28;20055;-71
2023/06/27 13:53:19;;;;;;;1999.90;999.90;;;;;;;;;;5011077;28;20045;-70
2023/06/27 13:55:45;;;;;;;1999.90;999.90;;;;;;;;;;5011050;28;20044;-70
2023/06/27 13:58:11;;;;;;;1999.90;999.90;;;;;;;;;;5010096;28;20363;-70
2023/06/27 14:00:36;;;;;;;1999.90;999.90;;;;;;;;;;5011118;28;20046;-70
2023/06/27 14:03:02;;;;;;;1999.90;999.90;;;;;;;;;;5011302;28;20034;-70
2023/06/27 14:05:27;;;;;;;12.32;11.18;;;;;;;;;;5010795;28;20136;-70
2023/06/27 14:07:52;;;;;;;3.97;2.25;;;;;;;;;;5010233;28;20124;-70
2023/06/27 14:10:18;;;;;;;3.33;2.92;;;;;;;;;;5010873;28;20060;-70
2023/06/27 14:12:43;;;;;;;4.30;3.90;;;;;;;;;;5011753;28;20116;-70
2023/06/27 14:15:09;;;;;;;31.40;4.78;;;;;;;;;;5012045;28;20688;-70
2023/06/27 14:17:34;;;;;;;3.05;2.83;;;;;;;;;;5008160;28;20034;-70
2023/06/27 14:20:00;;;;;;;3.45;3.03;;;;;;;;;;5011396;28;20488;-71
2023/06/27 14:22:25;;;;;;;9.63;8.27;;;;;;;;;;5011271;28;20050;-70
2023/06/27 14:24:50;;;;;;;6.93;2.40;;;;;;;;;;5010486;28;20040;-70
2023/06/27 14:27:16;;;;;;;3.35;1.98;;;;;;;;;;5012027;28;20046;-71
2023/06/27 14:29:41;;;;;;;5.03;2.25;;;;;;;;;;5011495;28;20113;-70